sensor_id;sensor_type;location;lat;lon;timestamp;P1;durP1;ratioP1;P2;durP2;ratioP2
25922;SDS011;13725;51.170;4.442;2023-04-03T00:01:13;20.48;;;10.10;;
25922;SDS011;13725;51.170;4.442;2023-04-03T00:03:39;22.60;;;10.70;;
25922;SDS011;13725;51.170;4.442;2023-04-03T00:06:06;26.48;;;11.63;;
25922;SDS011;13725;51.170;4.442;2023-04-03T00:08:34;24.30;;;10.60;;
25922;SDS011;13725;51.170;4.442;2023-04-03T00:11:00;28.48;;;11.18;;
25922;SDS011;13725;51.170;4.442;2023-04-03T00:13:27;26.15;;;10.77;;
25922;SDS011;13725;51.170;4.442;2023-04-03T00:15:53;26.67;;;10.73;;
25922;SDS011;13725;51.170;4.442;2023-04-03T00:18:19;20.52;;;10.45;;
25922;SDS011;13725;51.170;4.442;2023-04-03T00:20:46;19.05;;;9.32;;
25922;SDS011;13725;51.170;4.442;2023-04-03T00:23:12;19.27;;;9.80;;
25922;SDS011;13725;51.170;4.442;2023-04-03T00:25:37;19.75;;;10.20;;
25922;SDS011;13725;51.170;4.442;2023-04-03T00:28:03;17.27;;;9.90;;
25922;SDS011;13725;51.170;4.442;2023-04-03T00:30:30;21.65;;;10.35;;
25922;SDS011;13725;51.170;4.442;2023-04-03T00:32:56;23.17;;;10.40;;
25922;SDS011;13725;51.170;4.442;2023-04-03T00:35:22;20.63;;;10.35;;
25922;SDS011;13725;51.170;4.442;2023-04-03T00:37:50;23.10;;;10.57;;
25922;SDS011;13725;51.170;4.442;2023-04-03T00:40:18;24.83;;;11.25;;
25922;SDS011;13725;51.170;4.442;2023-04-03T00:42:45;21.42;;;10.60;;
25922;SDS011;13725;51.170;4.442;2023-04-03T00:45:27;21.33;;;10.45;;
25922;SDS011;13725;51.170;4.442;2023-04-03T00:47:55;21.52;;;10.65;;
25922;SDS011;13725;51.170;4.442;2023-04-03T00:50:24;26.65;;;11.55;;
25922;SDS011;13725;51.170;4.442;2023-04-03T00:52:51;22.73;;;10.98;;
25922;SDS011;13725;51.170;4.442;2023-04-03T00:55:18;29.25;;;11.35;;
25922;SDS011;13725;51.170;4.442;2023-04-03T00:57:45;23.75;;;11.48;;
25922;SDS011;13725;51.170;4.442;2023-04-03T01:00:12;25.02;;;10.68;;
25922;SDS011;13725;51.170;4.442;2023-04-03T01:02:41;24.02;;;12.35;;
25922;SDS011;13725;51.170;4.442;2023-04-03T01:05:09;19.05;;;10.63;;
25922;SDS011;13725;51.170;4.442;2023-04-03T01:07:36;22.30;;;11.18;;
25922;SDS011;13725;51.170;4.442;2023-04-03T01:10:04;23.75;;;9.52;;
25922;SDS011;13725;51.170;4.442;2023-04-03T01:12:36;18.58;;;9.63;;
25922;SDS011;13725;51.170;4.442;2023-04-03T01:15:05;20.13;;;10.63;;
25922;SDS011;13725;51.170;4.442;2023-04-03T01:17:44;21.70;;;11.20;;
25922;SDS011;13725;51.170;4.442;2023-04-03T01:20:18;22.95;;;9.65;;
25922;SDS011;13725;51.170;4.442;2023-04-03T01:23:06;13.48;;;8.60;;
25922;SDS011;13725;51.170;4.442;2023-04-03T01:25:45;23.70;;;10.00;;
25922;SDS011;13725;51.170;4.442;2023-04-03T01:28:12;17.80;;;10.38;;
25922;SDS011;13725;51.170;4.442;2023-04-03T01:30:50;17.45;;;9.80;;
25922;SDS011;13725;51.170;4.442;2023-04-03T01:33:31;18.33;;;9.43;;
25922;SDS011;13725;51.170;4.442;2023-04-03T01:35:57;21.27;;;9.25;;
25922;SDS011;13725;51.170;4.442;2023-04-03T01:38:23;16.23;;;8.73;;
25922;SDS011;13725;51.170;4.442;2023-04-03T01:40:49;20.70;;;10.48;;
25922;SDS011;13725;51.170;4.442;2023-04-03T01:43:14;15.90;;;10.00;;
25922;SDS011;13725;51.170;4.442;2023-04-03T01:45:40;18.80;;;9.80;;
25922;SDS011;13725;51.170;4.442;2023-04-03T01:48:06;23.40;;;9.60;;
25922;SDS011;13725;51.170;4.442;2023-04-03T01:50:32;16.35;;;9.00;;
25922;SDS011;13725;51.170;4.442;2023-04-03T01:52:58;16.52;;;9.70;;
25922;SDS011;13725;51.170;4.442;2023-04-03T01:55:23;20.27;;;9.68;;
25922;SDS011;13725;51.170;4.442;2023-04-03T01:57:49;18.00;;;9.00;;
25922;SDS011;13725;51.170;4.442;2023-04-03T02:00:15;19.67;;;9.23;;
25922;SDS011;13725;51.170;4.442;2023-04-03T02:02:41;21.00;;;10.15;;
25922;SDS011;13725;51.170;4.442;2023-04-03T02:05:07;14.80;;;8.88;;
25922;SDS011;13725;51.170;4.442;2023-04-03T02:07:33;17.95;;;10.27;;
25922;SDS011;13725;51.170;4.442;2023-04-03T02:09:58;17.25;;;8.57;;
25922;SDS011;13725;51.170;4.442;2023-04-03T02:12:24;15.75;;;8.75;;
25922;SDS011;13725;51.170;4.442;2023-04-03T02:14:50;15.02;;;8.73;;
25922;SDS011;13725;51.170;4.442;2023-04-03T02:17:16;17.77;;;8.98;;
25922;SDS011;13725;51.170;4.442;2023-04-03T02:19:41;19.75;;;8.65;;
25922;SDS011;13725;51.170;4.442;2023-04-03T02:22:07;15.52;;;8.60;;
25922;SDS011;13725;51.170;4.442;2023-04-03T02:24:32;14.13;;;8.65;;
25922;SDS011;13725;51.170;4.442;2023-04-03T02:26:58;15.43;;;8.32;;
25922;SDS011;13725;51.170;4.442;2023-04-03T02:29:24;14.82;;;8.35;;
25922;SDS011;13725;51.170;4.442;2023-04-03T02:31:50;13.18;;;8.07;;
25922;SDS011;13725;51.170;4.442;2023-04-03T02:34:17;17.73;;;8.18;;
25922;SDS011;13725;51.170;4.442;2023-04-03T02:36:43;15.23;;;8.38;;
25922;SDS011;13725;51.170;4.442;2023-04-03T02:39:10;15.20;;;8.20;;
25922;SDS011;13725;51.170;4.442;2023-04-03T02:41:36;16.05;;;9.05;;
25922;SDS011;13725;51.170;4.442;2023-04-03T02:44:07;13.90;;;8.55;;
25922;SDS011;13725;51.170;4.442;2023-04-03T02:46:34;16.13;;;8.73;;
25922;SDS011;13725;51.170;4.442;2023-04-03T02:49:01;15.23;;;8.88;;
25922;SDS011;13725;51.170;4.442;2023-04-03T02:51:27;18.17;;;9.50;;
25922;SDS011;13725;51.170;4.442;2023-04-03T02:53:53;19.25;;;9.68;;
25922;SDS011;13725;51.170;4.442;2023-04-03T02:56:22;16.88;;;9.27;;
25922;SDS011;13725;51.170;4.442;2023-04-03T02:58:48;18.65;;;9.57;;
25922;SDS011;13725;51.170;4.442;2023-04-03T03:01:15;17.65;;;8.93;;
25922;SDS011;13725;51.170;4.442;2023-04-03T03:03:41;16.92;;;8.93;;
25922;SDS011;13725;51.170;4.442;2023-04-03T03:06:08;20.23;;;9.48;;
25922;SDS011;13725;51.170;4.442;2023-04-03T03:08:38;16.52;;;9.23;;
25922;SDS011;13725;51.170;4.442;2023-04-03T03:11:04;15.95;;;8.85;;
25922;SDS011;13725;51.170;4.442;2023-04-03T03:13:32;17.83;;;9.30;;
25922;SDS011;13725;51.170;4.442;2023-04-03T03:15:58;15.63;;;9.18;;
25922;SDS011;13725;51.170;4.442;2023-04-03T03:18:23;17.73;;;9.07;;
25922;SDS011;13725;51.170;4.442;2023-04-03T03:20:53;16.17;;;8.52;;
25922;SDS011;13725;51.170;4.442;2023-04-03T03:23:20;15.15;;;8.82;;
25922;SDS011;13725;51.170;4.442;2023-04-03T03:25:46;19.63;;;9.65;;
25922;SDS011;13725;51.170;4.442;2023-04-03T03:28:12;20.02;;;9.63;;
25922;SDS011;13725;51.170;4.442;2023-04-03T03:30:38;14.63;;;8.55;;
25922;SDS011;13725;51.170;4.442;2023-04-03T03:33:04;17.30;;;9.48;;
25922;SDS011;13725;51.170;4.442;2023-04-03T03:35:29;18.40;;;9.50;;
25922;SDS011;13725;51.170;4.442;2023-04-03T03:37:55;18.33;;;9.98;;
25922;SDS011;13725;51.170;4.442;2023-04-03T03:40:21;17.25;;;8.70;;
25922;SDS011;13725;51.170;4.442;2023-04-03T03:42:47;18.95;;;8.90;;
25922;SDS011;13725;51.170;4.442;2023-04-03T03:45:13;16.92;;;9.73;;
25922;SDS011;13725;51.170;4.442;2023-04-03T03:47:40;15.48;;;9.20;;
25922;SDS011;13725;51.170;4.442;2023-04-03T03:50:06;18.83;;;9.15;;
25922;SDS011;13725;51.170;4.442;2023-04-03T03:52:32;20.25;;;9.57;;
25922;SDS011;13725;51.170;4.442;2023-04-03T03:54:58;16.38;;;9.60;;
25922;SDS011;13725;51.170;4.442;2023-04-03T03:57:23;16.05;;;9.98;;
25922;SDS011;13725;51.170;4.442;2023-04-03T03:59:51;15.45;;;8.93;;
25922;SDS011;13725;51.170;4.442;2023-04-03T04:02:18;19.55;;;9.43;;
25922;SDS011;13725;51.170;4.442;2023-04-03T04:04:43;16.88;;;9.23;;
25922;SDS011;13725;51.170;4.442;2023-04-03T04:07:09;16.35;;;9.13;;
25922;SDS011;13725;51.170;4.442;2023-04-03T04:09:35;15.27;;;9.43;;
25922;SDS011;13725;51.170;4.442;2023-04-03T04:12:01;18.50;;;9.57;;
25922;SDS011;13725;51.170;4.442;2023-04-03T04:14:29;17.83;;;9.35;;
25922;SDS011;13725;51.170;4.442;2023-04-03T04:16:55;19.85;;;10.52;;
25922;SDS011;13725;51.170;4.442;2023-04-03T04:19:24;18.52;;;10.10;;
25922;SDS011;13725;51.170;4.442;2023-04-03T04:21:49;18.80;;;9.13;;
25922;SDS011;13725;51.170;4.442;2023-04-03T04:24:16;18.67;;;10.40;;
25922;SDS011;13725;51.170;4.442;2023-04-03T04:26:41;16.90;;;9.55;;
25922;SDS011;13725;51.170;4.442;2023-04-03T04:29:10;19.48;;;9.73;;
25922;SDS011;13725;51.170;4.442;2023-04-03T04:31:37;19.67;;;10.27;;
25922;SDS011;13725;51.170;4.442;2023-04-03T04:34:02;18.83;;;11.50;;
25922;SDS011;13725;51.170;4.442;2023-04-03T04:36:28;18.17;;;9.73;;
25922;SDS011;13725;51.170;4.442;2023-04-03T04:38:54;20.27;;;10.30;;
25922;SDS011;13725;51.170;4.442;2023-04-03T04:41:22;22.77;;;10.57;;
25922;SDS011;13725;51.170;4.442;2023-04-03T04:43:49;19.25;;;10.48;;
25922;SDS011;13725;51.170;4.442;2023-04-03T04:46:15;18.13;;;10.65;;
25922;SDS011;13725;51.170;4.442;2023-04-03T04:48:47;16.40;;;10.63;;
25922;SDS011;13725;51.170;4.442;2023-04-03T04:51:14;20.00;;;10.30;;
25922;SDS011;13725;51.170;4.442;2023-04-03T04:53:40;16.52;;;10.52;;
25922;SDS011;13725;51.170;4.442;2023-04-03T04:56:08;20.25;;;10.65;;
25922;SDS011;13725;51.170;4.442;2023-04-03T04:58:36;22.85;;;11.50;;
25922;SDS011;13725;51.170;4.442;2023-04-03T05:01:03;20.88;;;11.65;;
25922;SDS011;13725;51.170;4.442;2023-04-03T05:03:36;20.98;;;10.77;;
25922;SDS011;13725;51.170;4.442;2023-04-03T05:06:02;19.38;;;10.75;;
25922;SDS011;13725;51.170;4.442;2023-04-03T05:08:30;22.80;;;11.48;;
25922;SDS011;13725;51.170;4.442;2023-04-03T05:10:56;23.35;;;11.45;;
25922;SDS011;13725;51.170;4.442;2023-04-03T05:13:24;21.10;;;11.85;;
25922;SDS011;13725;51.170;4.442;2023-04-03T05:15:50;27.20;;;12.32;;
25922;SDS011;13725;51.170;4.442;2023-04-03T05:18:15;26.10;;;12.50;;
25922;SDS011;13725;51.170;4.442;2023-04-03T05:20:41;24.13;;;13.70;;
25922;SDS011;13725;51.170;4.442;2023-04-03T05:23:09;25.10;;;13.00;;
25922;SDS011;13725;51.170;4.442;2023-04-03T05:25:37;27.42;;;14.10;;
25922;SDS011;13725;51.170;4.442;2023-04-03T05:28:04;24.10;;;12.43;;
25922;SDS011;13725;51.170;4.442;2023-04-03T05:30:30;23.75;;;14.13;;
25922;SDS011;13725;51.170;4.442;2023-04-03T05:32:56;23.67;;;13.52;;
25922;SDS011;13725;51.170;4.442;2023-04-03T05:35:38;24.20;;;12.57;;
25922;SDS011;13725;51.170;4.442;2023-04-03T05:38:05;25.98;;;13.23;;
25922;SDS011;13725;51.170;4.442;2023-04-03T05:40:31;23.88;;;13.25;;
25922;SDS011;13725;51.170;4.442;2023-04-03T05:42:57;24.88;;;12.90;;
25922;SDS011;13725;51.170;4.442;2023-04-03T05:45:25;23.73;;;11.90;;
25922;SDS011;13725;51.170;4.442;2023-04-03T05:47:51;21.23;;;12.10;;
25922;SDS011;13725;51.170;4.442;2023-04-03T05:50:17;23.02;;;12.35;;
25922;SDS011;13725;51.170;4.442;2023-04-03T05:52:44;20.02;;;11.95;;
25922;SDS011;13725;51.170;4.442;2023-04-03T05:55:13;22.38;;;12.15;;
25922;SDS011;13725;51.170;4.442;2023-04-03T05:57:39;22.98;;;11.95;;
25922;SDS011;13725;51.170;4.442;2023-04-03T06:00:06;23.98;;;12.05;;
25922;SDS011;13725;51.170;4.442;2023-04-03T06:02:39;20.25;;;12.35;;
25922;SDS011;13725;51.170;4.442;2023-04-03T06:05:06;26.65;;;11.93;;
25922;SDS011;13725;51.170;4.442;2023-04-03T06:07:33;19.65;;;10.90;;
25922;SDS011;13725;51.170;4.442;2023-04-03T06:09:59;18.02;;;9.93;;
25922;SDS011;13725;51.170;4.442;2023-04-03T06:12:26;14.73;;;10.18;;
25922;SDS011;13725;51.170;4.442;2023-04-03T06:14:55;15.82;;;9.75;;
25922;SDS011;13725;51.170;4.442;2023-04-03T06:17:21;15.65;;;8.68;;
25922;SDS011;13725;51.170;4.442;2023-04-03T06:19:46;13.50;;;8.00;;
25922;SDS011;13725;51.170;4.442;2023-04-03T06:22:13;12.25;;;7.30;;
25922;SDS011;13725;51.170;4.442;2023-04-03T06:24:38;12.60;;;7.85;;
25922;SDS011;13725;51.170;4.442;2023-04-03T06:27:04;12.88;;;6.65;;
25922;SDS011;13725;51.170;4.442;2023-04-03T06:29:30;14.30;;;6.28;;
25922;SDS011;13725;51.170;4.442;2023-04-03T06:31:55;12.48;;;6.63;;
25922;SDS011;13725;51.170;4.442;2023-04-03T06:34:21;8.98;;;6.28;;
25922;SDS011;13725;51.170;4.442;2023-04-03T06:36:47;14.00;;;5.90;;
25922;SDS011;13725;51.170;4.442;2023-04-03T06:39:17;11.38;;;5.70;;
25922;SDS011;13725;51.170;4.442;2023-04-03T06:41:45;8.02;;;4.97;;
25922;SDS011;13725;51.170;4.442;2023-04-03T06:44:11;9.23;;;5.13;;
25922;SDS011;13725;51.170;4.442;2023-04-03T06:46:38;10.23;;;5.45;;
25922;SDS011;13725;51.170;4.442;2023-04-03T06:49:04;10.30;;;4.80;;
25922;SDS011;13725;51.170;4.442;2023-04-03T06:51:32;7.90;;;4.95;;
25922;SDS011;13725;51.170;4.442;2023-04-03T06:53:59;8.43;;;4.50;;
25922;SDS011;13725;51.170;4.442;2023-04-03T06:56:25;7.97;;;4.45;;
25922;SDS011;13725;51.170;4.442;2023-04-03T06:58:52;7.68;;;4.50;;
25922;SDS011;13725;51.170;4.442;2023-04-03T07:01:20;8.77;;;4.53;;
25922;SDS011;13725;51.170;4.442;2023-04-03T07:03:46;10.10;;;4.43;;
25922;SDS011;13725;51.170;4.442;2023-04-03T07:06:13;8.20;;;4.50;;
25922;SDS011;13725;51.170;4.442;2023-04-03T07:08:40;8.85;;;4.28;;
25922;SDS011;13725;51.170;4.442;2023-04-03T07:11:07;11.80;;;4.78;;
25922;SDS011;13725;51.170;4.442;2023-04-03T07:13:33;7.15;;;4.15;;
25922;SDS011;13725;51.170;4.442;2023-04-03T07:15:59;7.65;;;3.75;;
25922;SDS011;13725;51.170;4.442;2023-04-03T07:18:25;6.25;;;3.97;;
25922;SDS011;13725;51.170;4.442;2023-04-03T07:20:51;7.72;;;3.53;;
25922;SDS011;13725;51.170;4.442;2023-04-03T07:23:17;8.85;;;3.35;;
25922;SDS011;13725;51.170;4.442;2023-04-03T07:25:44;7.13;;;3.50;;
25922;SDS011;13725;51.170;4.442;2023-04-03T07:28:11;9.75;;;4.07;;
25922;SDS011;13725;51.170;4.442;2023-04-03T07:30:48;7.20;;;3.50;;
25922;SDS011;13725;51.170;4.442;2023-04-03T07:33:36;8.95;;;3.30;;
25922;SDS011;13725;51.170;4.442;2023-04-03T07:36:02;6.35;;;3.25;;
25922;SDS011;13725;51.170;4.442;2023-04-03T07:38:28;8.15;;;3.40;;
25922;SDS011;13725;51.170;4.442;2023-04-03T07:40:54;9.60;;;3.45;;
25922;SDS011;13725;51.170;4.442;2023-04-03T07:43:20;5.68;;;3.20;;
25922;SDS011;13725;51.170;4.442;2023-04-03T07:45:47;6.13;;;2.97;;
25922;SDS011;13725;51.170;4.442;2023-04-03T07:48:18;5.32;;;3.10;;
25922;SDS011;13725;51.170;4.442;2023-04-03T07:50:44;5.82;;;2.72;;
25922;SDS011;13725;51.170;4.442;2023-04-03T07:53:10;4.75;;;2.85;;
25922;SDS011;13725;51.170;4.442;2023-04-03T07:55:36;5.22;;;2.85;;
25922;SDS011;13725;51.170;4.442;2023-04-03T07:58:08;4.97;;;2.75;;
25922;SDS011;13725;51.170;4.442;2023-04-03T08:00:39;6.78;;;2.50;;
25922;SDS011;13725;51.170;4.442;2023-04-03T08:03:05;5.63;;;3.13;;
25922;SDS011;13725;51.170;4.442;2023-04-03T08:05:34;5.00;;;2.47;;
25922;SDS011;13725;51.170;4.442;2023-04-03T08:08:08;4.43;;;2.80;;
25922;SDS011;13725;51.170;4.442;2023-04-03T08:10:35;6.65;;;2.88;;
25922;SDS011;13725;51.170;4.442;2023-04-03T08:13:01;9.20;;;2.55;;
25922;SDS011;13725;51.170;4.442;2023-04-03T08:15:29;3.70;;;1.95;;
25922;SDS011;13725;51.170;4.442;2023-04-03T08:17:55;5.68;;;2.22;;
25922;SDS011;13725;51.170;4.442;2023-04-03T08:20:21;5.03;;;2.50;;
25922;SDS011;13725;51.170;4.442;2023-04-03T08:22:47;6.07;;;2.63;;
25922;SDS011;13725;51.170;4.442;2023-04-03T08:25:12;4.10;;;2.55;;
25922;SDS011;13725;51.170;4.442;2023-04-03T08:27:38;6.55;;;2.58;;
25922;SDS011;13725;51.170;4.442;2023-04-03T08:30:04;4.85;;;2.22;;
25922;SDS011;13725;51.170;4.442;2023-04-03T08:32:33;7.55;;;2.42;;
25922;SDS011;13725;51.170;4.442;2023-04-03T08:34:59;4.13;;;2.17;;
25922;SDS011;13725;51.170;4.442;2023-04-03T08:37:25;7.57;;;2.58;;
25922;SDS011;13725;51.170;4.442;2023-04-03T08:39:51;5.57;;;2.40;;
25922;SDS011;13725;51.170;4.442;2023-04-03T08:50:22;6.15;;;2.05;;
25922;SDS011;13725;51.170;4.442;2023-04-03T08:52:55;6.40;;;2.03;;
25922;SDS011;13725;51.170;4.442;2023-04-03T08:57:51;5.30;;;2.05;;
25922;SDS011;13725;51.170;4.442;2023-04-03T09:00:27;5.65;;;1.83;;
25922;SDS011;13725;51.170;4.442;2023-04-03T09:03:15;5.18;;;1.77;;
25922;SDS011;13725;51.170;4.442;2023-04-03T09:06:04;4.50;;;1.55;;
25922;SDS011;13725;51.170;4.442;2023-04-03T09:08:29;8.75;;;2.30;;
25922;SDS011;13725;51.170;4.442;2023-04-03T09:13:36;6.68;;;1.90;;
25922;SDS011;13725;51.170;4.442;2023-04-03T09:16:18;4.93;;;2.03;;
25922;SDS011;13725;51.170;4.442;2023-04-03T09:19:10;4.30;;;1.65;;
25922;SDS011;13725;51.170;4.442;2023-04-03T09:21:41;3.35;;;1.63;;
25922;SDS011;13725;51.170;4.442;2023-04-03T09:24:07;2.85;;;1.65;;
25922;SDS011;13725;51.170;4.442;2023-04-03T09:29:08;3.85;;;1.60;;
25922;SDS011;13725;51.170;4.442;2023-04-03T09:31:38;5.07;;;1.55;;
25922;SDS011;13725;51.170;4.442;2023-04-03T09:34:26;6.00;;;1.73;;
25922;SDS011;13725;51.170;4.442;2023-04-03T09:36:56;5.97;;;1.65;;
25922;SDS011;13725;51.170;4.442;2023-04-03T09:39:25;3.83;;;1.60;;
25922;SDS011;13725;51.170;4.442;2023-04-03T09:41:56;5.85;;;1.70;;
25922;SDS011;13725;51.170;4.442;2023-04-03T09:44:26;3.20;;;1.25;;
25922;SDS011;13725;51.170;4.442;2023-04-03T09:47:11;4.57;;;1.38;;
25922;SDS011;13725;51.170;4.442;2023-04-03T09:49:43;5.38;;;1.38;;
25922;SDS011;13725;51.170;4.442;2023-04-03T09:55:23;3.55;;;1.33;;
25922;SDS011;13725;51.170;4.442;2023-04-03T09:58:02;4.97;;;1.63;;
25922;SDS011;13725;51.170;4.442;2023-04-03T10:00:36;2.65;;;1.33;;
25922;SDS011;13725;51.170;4.442;2023-04-03T10:03:04;3.78;;;1.40;;
25922;SDS011;13725;51.170;4.442;2023-04-03T10:05:38;2.78;;;1.50;;
25922;SDS011;13725;51.170;4.442;2023-04-03T10:08:19;7.90;;;1.75;;
25922;SDS011;13725;51.170;4.442;2023-04-03T10:11:13;4.97;;;1.42;;
25922;SDS011;13725;51.170;4.442;2023-04-03T10:14:17;2.30;;;1.17;;
25922;SDS011;13725;51.170;4.442;2023-04-03T10:16:43;3.45;;;1.20;;
25922;SDS011;13725;51.170;4.442;2023-04-03T10:19:36;3.78;;;1.25;;
25922;SDS011;13725;51.170;4.442;2023-04-03T10:33:01;3.45;;;1.23;;
25922;SDS011;13725;51.170;4.442;2023-04-03T10:46:47;2.47;;;1.15;;
25922;SDS011;13725;51.170;4.442;2023-04-03T10:52:06;2.50;;;1.08;;
25922;SDS011;13725;51.170;4.442;2023-04-03T10:57:27;4.15;;;1.08;;
25922;SDS011;13725;51.170;4.442;2023-04-03T10:59:59;2.58;;;1.08;;
25922;SDS011;13725;51.170;4.442;2023-04-03T11:02:31;4.97;;;1.30;;
25922;SDS011;13725;51.170;4.442;2023-04-03T11:05:36;2.20;;;0.80;;
25922;SDS011;13725;51.170;4.442;2023-04-03T11:08:57;2.03;;;1.10;;
25922;SDS011;13725;51.170;4.442;2023-04-03T11:11:31;2.70;;;1.10;;
25922;SDS011;13725;51.170;4.442;2023-04-03T11:14:05;1.90;;;0.90;;
25922;SDS011;13725;51.170;4.442;2023-04-03T11:16:55;2.85;;;1.48;;
25922;SDS011;13725;51.170;4.442;2023-04-03T11:19:38;2.80;;;1.27;;
25922;SDS011;13725;51.170;4.442;2023-04-03T11:24:51;3.33;;;1.20;;
25922;SDS011;13725;51.170;4.442;2023-04-03T11:27:35;2.15;;;1.00;;
25922;SDS011;13725;51.170;4.442;2023-04-03T11:30:12;1.83;;;0.93;;
25922;SDS011;13725;51.170;4.442;2023-04-03T11:35:21;1.38;;;0.90;;
25922;SDS011;13725;51.170;4.442;2023-04-03T11:37:53;5.28;;;0.90;;
25922;SDS011;13725;51.170;4.442;2023-04-03T11:40:24;1.38;;;0.90;;
25922;SDS011;13725;51.170;4.442;2023-04-03T11:43:39;1.67;;;0.80;;
25922;SDS011;13725;51.170;4.442;2023-04-03T11:46:06;3.65;;;1.15;;
25922;SDS011;13725;51.170;4.442;2023-04-03T11:53:47;2.97;;;0.70;;
25922;SDS011;13725;51.170;4.442;2023-04-03T12:04:14;3.33;;;1.38;;
25922;SDS011;13725;51.170;4.442;2023-04-03T12:06:48;0.98;;;0.52;;
25922;SDS011;13725;51.170;4.442;2023-04-03T12:15:17;1.90;;;0.75;;
25922;SDS011;13725;51.170;4.442;2023-04-03T12:17:44;3.28;;;0.90;;
25922;SDS011;13725;51.170;4.442;2023-04-03T12:20:53;2.85;;;1.15;;
25922;SDS011;13725;51.170;4.442;2023-04-03T12:25:52;2.63;;;0.90;;
25922;SDS011;13725;51.170;4.442;2023-04-03T12:28:34;3.72;;;0.90;;
25922;SDS011;13725;51.170;4.442;2023-04-03T12:31:02;1.70;;;0.85;;
25922;SDS011;13725;51.170;4.442;2023-04-03T12:36:33;1.83;;;0.95;;
25922;SDS011;13725;51.170;4.442;2023-04-03T12:41:58;1.75;;;1.00;;
25922;SDS011;13725;51.170;4.442;2023-04-03T12:44:54;2.00;;;1.13;;
25922;SDS011;13725;51.170;4.442;2023-04-03T12:47:29;1.58;;;0.80;;
25922;SDS011;13725;51.170;4.442;2023-04-03T12:49:59;1.73;;;1.13;;
25922;SDS011;13725;51.170;4.442;2023-04-03T12:52:33;1.63;;;0.95;;
25922;SDS011;13725;51.170;4.442;2023-04-03T12:55:07;4.05;;;0.90;;
25922;SDS011;13725;51.170;4.442;2023-04-03T12:57:40;2.67;;;0.80;;
25922;SDS011;13725;51.170;4.442;2023-04-03T13:02:54;2.67;;;1.17;;
25922;SDS011;13725;51.170;4.442;2023-04-03T13:05:20;2.90;;;0.93;;
25922;SDS011;13725;51.170;4.442;2023-04-03T13:07:58;1.95;;;0.95;;
25922;SDS011;13725;51.170;4.442;2023-04-03T13:10:27;2.47;;;0.90;;
25922;SDS011;13725;51.170;4.442;2023-04-03T13:12:54;2.58;;;1.10;;
25922;SDS011;13725;51.170;4.442;2023-04-03T13:15:30;2.38;;;1.15;;
25922;SDS011;13725;51.170;4.442;2023-04-03T13:20:45;4.20;;;1.10;;
25922;SDS011;13725;51.170;4.442;2023-04-03T13:23:14;2.17;;;1.10;;
25922;SDS011;13725;51.170;4.442;2023-04-03T13:25:44;2.15;;;0.98;;
25922;SDS011;13725;51.170;4.442;2023-04-03T13:28:12;2.95;;;0.93;;
25922;SDS011;13725;51.170;4.442;2023-04-03T13:30:53;1.67;;;0.93;;
25922;SDS011;13725;51.170;4.442;2023-04-03T13:33:30;1.50;;;0.82;;
25922;SDS011;13725;51.170;4.442;2023-04-03T13:36:05;6.15;;;1.15;;
25922;SDS011;13725;51.170;4.442;2023-04-03T13:38:42;2.35;;;1.35;;
25922;SDS011;13725;51.170;4.442;2023-04-03T13:41:23;5.00;;;1.50;;
25922;SDS011;13725;51.170;4.442;2023-04-03T13:43:51;4.15;;;0.93;;
25922;SDS011;13725;51.170;4.442;2023-04-03T13:48:44;5.82;;;0.82;;
25922;SDS011;13725;51.170;4.442;2023-04-03T13:51:17;3.92;;;1.02;;
25922;SDS011;13725;51.170;4.442;2023-04-03T13:56:26;6.68;;;1.30;;
25922;SDS011;13725;51.170;4.442;2023-04-03T14:02:09;1.38;;;0.80;;
25922;SDS011;13725;51.170;4.442;2023-04-03T14:07:05;2.28;;;1.00;;
25922;SDS011;13725;51.170;4.442;2023-04-03T14:09:31;2.10;;;0.85;;
25922;SDS011;13725;51.170;4.442;2023-04-03T14:12:05;2.90;;;0.90;;
25922;SDS011;13725;51.170;4.442;2023-04-03T14:14:34;2.45;;;1.00;;
25922;SDS011;13725;51.170;4.442;2023-04-03T14:17:18;1.50;;;0.90;;
25922;SDS011;13725;51.170;4.442;2023-04-03T14:19:46;3.17;;;1.10;;
25922;SDS011;13725;51.170;4.442;2023-04-03T14:22:23;3.10;;;1.23;;
25922;SDS011;13725;51.170;4.442;2023-04-03T14:24:51;2.53;;;1.10;;
25922;SDS011;13725;51.170;4.442;2023-04-03T14:29:45;2.83;;;1.10;;
25922;SDS011;13725;51.170;4.442;2023-04-03T14:32:13;4.68;;;1.23;;
25922;SDS011;13725;51.170;4.442;2023-04-03T14:34:45;3.17;;;1.13;;
25922;SDS011;13725;51.170;4.442;2023-04-03T14:37:15;2.42;;;0.90;;
25922;SDS011;13725;51.170;4.442;2023-04-03T14:39:44;2.35;;;1.23;;
25922;SDS011;13725;51.170;4.442;2023-04-03T14:42:15;2.53;;;1.25;;
25922;SDS011;13725;51.170;4.442;2023-04-03T14:44:43;1.63;;;1.00;;
25922;SDS011;13725;51.170;4.442;2023-04-03T14:47:10;3.25;;;0.90;;
25922;SDS011;13725;51.170;4.442;2023-04-03T14:49:42;2.17;;;0.98;;
25922;SDS011;13725;51.170;4.442;2023-04-03T14:52:16;2.70;;;0.90;;
25922;SDS011;13725;51.170;4.442;2023-04-03T14:54:54;1.05;;;0.88;;
25922;SDS011;13725;51.170;4.442;2023-04-03T14:57:21;3.78;;;0.80;;
25922;SDS011;13725;51.170;4.442;2023-04-03T14:59:50;3.65;;;1.20;;
25922;SDS011;13725;51.170;4.442;2023-04-03T15:04:53;4.03;;;1.13;;
25922;SDS011;13725;51.170;4.442;2023-04-03T15:07:23;3.67;;;1.08;;
25922;SDS011;13725;51.170;4.442;2023-04-03T15:09:50;2.72;;;1.10;;
25922;SDS011;13725;51.170;4.442;2023-04-03T15:12:17;2.00;;;1.25;;
25922;SDS011;13725;51.170;4.442;2023-04-03T15:14:43;2.72;;;1.20;;
25922;SDS011;13725;51.170;4.442;2023-04-03T15:17:17;2.30;;;1.20;;
25922;SDS011;13725;51.170;4.442;2023-04-03T15:19:45;2.25;;;1.17;;
25922;SDS011;13725;51.170;4.442;2023-04-03T15:22:14;1.58;;;1.15;;
25922;SDS011;13725;51.170;4.442;2023-04-03T15:24:43;2.95;;;1.20;;
25922;SDS011;13725;51.170;4.442;2023-04-03T15:27:09;1.95;;;1.15;;
25922;SDS011;13725;51.170;4.442;2023-04-03T15:29:37;4.90;;;0.93;;
25922;SDS011;13725;51.170;4.442;2023-04-03T15:32:04;3.60;;;1.20;;
25922;SDS011;13725;51.170;4.442;2023-04-03T15:34:30;3.80;;;1.23;;
25922;SDS011;13725;51.170;4.442;2023-04-03T15:36:56;4.20;;;1.20;;
25922;SDS011;13725;51.170;4.442;2023-04-03T15:39:22;4.30;;;1.20;;
25922;SDS011;13725;51.170;4.442;2023-04-03T15:41:49;3.00;;;1.05;;
25922;SDS011;13725;51.170;4.442;2023-04-03T15:44:16;5.40;;;1.17;;
25922;SDS011;13725;51.170;4.442;2023-04-03T15:46:43;2.03;;;1.10;;
25922;SDS011;13725;51.170;4.442;2023-04-03T15:49:11;2.08;;;1.25;;
25922;SDS011;13725;51.170;4.442;2023-04-03T15:51:37;2.35;;;1.20;;
25922;SDS011;13725;51.170;4.442;2023-04-03T15:54:04;2.05;;;1.00;;
25922;SDS011;13725;51.170;4.442;2023-04-03T15:56:30;4.53;;;1.00;;
25922;SDS011;13725;51.170;4.442;2023-04-03T15:58:56;3.33;;;1.20;;
25922;SDS011;13725;51.170;4.442;2023-04-03T16:01:22;3.75;;;1.40;;
25922;SDS011;13725;51.170;4.442;2023-04-03T16:03:48;2.85;;;1.17;;
25922;SDS011;13725;51.170;4.442;2023-04-03T16:06:14;5.18;;;1.13;;
25922;SDS011;13725;51.170;4.442;2023-04-03T16:08:41;2.75;;;1.20;;
25922;SDS011;13725;51.170;4.442;2023-04-03T16:11:08;5.55;;;1.27;;
25922;SDS011;13725;51.170;4.442;2023-04-03T16:13:34;3.88;;;1.25;;
25922;SDS011;13725;51.170;4.442;2023-04-03T16:16:00;6.50;;;2.08;;
25922;SDS011;13725;51.170;4.442;2023-04-03T16:18:27;6.97;;;1.45;;
25922;SDS011;13725;51.170;4.442;2023-04-03T16:20:54;2.45;;;1.10;;
25922;SDS011;13725;51.170;4.442;2023-04-03T16:23:20;5.15;;;1.00;;
25922;SDS011;13725;51.170;4.442;2023-04-03T16:25:46;2.28;;;1.30;;
25922;SDS011;13725;51.170;4.442;2023-04-03T16:28:13;2.75;;;1.20;;
25922;SDS011;13725;51.170;4.442;2023-04-03T16:30:40;3.33;;;1.23;;
25922;SDS011;13725;51.170;4.442;2023-04-03T16:33:06;3.85;;;1.70;;